Flight Track Log - Related Links

Times and Time Zones

All times are in EDT time to prevent confusion due to time zone crossing. See the SKW6492 flight status page for this flight to view local times or setup timezone preferences in your user account.

Time Position Orientation Groundspeed Altitude Reporting Facility
EDT Latitude Longitude Course Direction KTS MPH feet Rate Location/Type
Sun 04:34:11 PM 30.3300 -97.7064 291° West 215 247 6,300  Level Houston Center
Sun 04:35:00 PM 30.4462 -97.7519 293° West  Level FlightAware Approximate
Sun 04:35:13 PM 30.3633 -97.7775 299° West 246 283 9,200  Level Houston Center
Sun 04:36:00 PM 30.4900 -97.8723 293° West  Level FlightAware Approximate
Sun 04:36:15 PM 30.3958 -97.8528 297° West 253 291 11,000  Level Houston Center
Sun 04:37:00 PM 30.5314 -97.9939 291° West  Level FlightAware Approximate
Sun 04:37:17 PM 30.4347 -97.9411 297° West 297 342 13,500  Level Houston Center
Sun 04:38:00 PM 30.5721 -98.1159 291° West  Level FlightAware Approximate
Sun 04:38:19 PM 30.4742 -98.0308 297° West 307 353 16,100  Level Houston Center
Sun 04:39:00 PM 30.6127 -98.2380 291° West  Level FlightAware Approximate
Sun 04:39:21 PM 30.5136 -98.1228 296° West 313 360 18,100  Level Houston Center
Sun 04:40:23 PM 30.5606 -98.2350 296° West 326 375 20,500 2,081 Climbing Houston Center
Sun 04:41:25 PM 30.6028 -98.3333 297° West 335 386 22,400 1,839 Climbing Houston Center
Sun 04:42:27 PM 30.6469 -98.4347 297° West 345 397 24,300 1,694 Climbing Houston Center
Sun 04:43:29 PM 30.6908 -98.5369 297° West 349 402 25,900 1,597 Climbing Houston Center
Sun 04:44:31 PM 30.7361 -98.6417 297° West 356 410 27,600 1,355 Climbing Houston Center
Sun 04:45:33 PM 30.7806 -98.7475 296° West 361 415 28,700 1,065 Climbing Houston Center
Sun 04:46:35 PM 30.8622 -98.8281 320° Northwest 392 451 29,800 1,161 Climbing Houston Center
Sun 04:47:37 PM 30.9639 -98.8914 332° Northwest 408 470 31,100 1,597 Climbing Houston Center
Sun 04:48:39 PM 31.0800 -98.9636 332° Northwest 402 463 33,100 1,452 Climbing Houston Center
Sun 04:49:41 PM 31.1747 -99.0242 331° Northwest 389 448 34,100 581 Climbing Houston Center
Sun 04:50:43 PM 31.2742 -99.0878 331° Northwest 399 459 34,300 435 Climbing Houston Center
Sun 04:51:45 PM 31.3778 -99.1539 331° Northwest 414 476 35,000 629 Climbing Houston Center
Sun 04:52:47 PM 31.4831 -99.2200 332° Northwest 422 486 35,600 726 Climbing Houston Center
Sun 04:53:49 PM 31.5867 -99.2853 332° Northwest 420 483 36,500 774 Climbing Houston Center
Sun 04:54:51 PM 31.6908 -99.3506 332° Northwest 419 482 37,200 726 Climbing Houston Center
Sun 04:55:53 PM 31.7936 -99.4178 331° Northwest 418 481 38,000 387 Climbing Houston Center
Sun 04:56:55 PM 31.9139 -99.4944 332° Northwest 415 478 38,000  Level Houston Center
Sun 04:57:57 PM 32.0125 -99.5578 331° Northwest 410 472 38,000  Level Houston Center
Sun 04:59:00 PM 32.1169 -99.6258 331° Northwest 413 475 38,000  Level Houston Center
Sun 04:59:58 PM 32.2178 -99.6922 331° Northwest 411 473 38,000  Level Fort Worth Center
Sun 05:00:58 PM 32.3064 -99.7508 331° Northwest 411 473 38,000  Level Fort Worth Center
Sun 05:01:59 PM 32.4075 -99.8150 332° Northwest 411 473 38,000  Level Fort Worth Center
Sun 05:02:58 PM 32.5042 -99.8817 330° Northwest 411 473 38,000  Level Fort Worth Center
Sun 05:03:58 PM 32.6156 -99.9561 331° Northwest 411 473 38,000  Level Fort Worth Center
Sun 05:04:59 PM 32.7247 -100.0211 333° Northwest 416 479 38,000  Level Fort Worth Center
Sun 05:05:59 PM 32.8175 -100.0831 331° Northwest 421 484 38,000  Level Fort Worth Center
Sun 05:06:58 PM 32.9183 -100.1456 333° Northwest 415 478 38,000  Level Fort Worth Center
Sun 05:07:59 PM 33.0211 -100.2131 331° Northwest 415 478 38,000  Level Fort Worth Center
Sun 05:08:58 PM 33.1303 -100.2861 331° Northwest 415 478 38,000  Level Fort Worth Center
Sun 05:09:58 PM 33.2331 -100.3514 332° Northwest 415 478 38,000  Level Fort Worth Center
Sun 05:10:59 PM 33.3358 -100.4169 332° Northwest 415 478 38,000  Level Fort Worth Center
Sun 05:11:58 PM 33.4386 -100.4853 331° Northwest 415 478 38,000  Level Fort Worth Center
Sun 05:12:58 PM 33.5414 -100.5511 332° Northwest 415 478 38,000  Level Fort Worth Center
Sun 05:13:59 PM 33.6417 -100.6219 330° Northwest 410 472 38,000  Level Fort Worth Center
Sun 05:14:59 PM 33.7442 -100.6908 331° Northwest 410 472 38,000  Level Fort Worth Center
Sun 05:17:07 PM 33.9494 -100.8236 332° Northwest 423 487 38,000  Level Albuquerque Center
Sun 05:18:09 PM 34.0533 -100.8911 332° Northwest 423 487 38,000  Level Albuquerque Center
Sun 05:19:10 PM 34.1761 -100.9744 331° Northwest 423 487 38,000  Level Albuquerque Center
Sun 05:20:12 PM 34.2783 -101.0442 331° Northwest 422 486 38,000  Level Albuquerque Center
Sun 05:21:14 PM 34.3819 -101.1133 331° Northwest 423 487 38,000  Level Albuquerque Center
Sun 05:22:15 PM 34.4839 -101.1831 331° Northwest 422 486 38,000  Level Albuquerque Center
Sun 05:23:17 PM 34.5858 -101.2522 331° Northwest 421 484 38,000  Level Albuquerque Center
Sun 05:24:18 PM 34.6886 -101.3219 331° Northwest 422 486 38,000  Level Albuquerque Center
Sun 05:25:20 PM 34.7919 -101.3925 331° Northwest 425 489 38,000  Level Albuquerque Center
Sun 05:26:22 PM 34.9144 -101.4767 331° Northwest 423 487 38,000  Level Albuquerque Center
Sun 05:27:23 PM 35.0225 -101.5506 331° Northwest 428 493 38,000  Level Albuquerque Center
Sun 05:28:25 PM 35.1258 -101.6225 330° Northwest 429 494 38,000  Level Albuquerque Center
Sun 05:29:27 PM 35.2297 -101.6925 331° Northwest 427 491 38,000  Level Albuquerque Center
Sun 05:30:28 PM 35.3400 -101.7456 339° North 423 487 38,000  Level Albuquerque Center
Sun 05:31:30 PM 35.4467 -101.7956 339° North 415 478 38,000  Level Albuquerque Center
Sun 05:32:31 PM 35.5581 -101.8472 339° North 415 478 38,000  Level Albuquerque Center
Sun 05:33:33 PM 35.6639 -101.8969 339° North 409 471 38,000  Level Albuquerque Center
Sun 05:34:35 PM 35.7694 -101.9458 339° North 406 467 38,000  Level Albuquerque Center
Sun 05:35:36 PM 35.8747 -101.9944 339° North 405 466 38,000  Level Albuquerque Center
Sun 05:36:38 PM 35.9786 -102.0436 339° North 402 463 38,000  Level Albuquerque Center
Sun 05:37:40 PM 36.1036 -102.1014 340° North 399 459 38,000  Level Albuquerque Center
Sun 05:38:41 PM 36.2058 -102.1500 339° North 395 455 38,000  Level Albuquerque Center
Sun 05:39:43 PM 36.3089 -102.1981 339° North 395 455 38,000 -290 Level Albuquerque Center
Sun 05:40:45 PM 36.4103 -102.2467 339° North 392 451 37,400 -780 Descending Albuquerque Center
Sun 05:41:46 PM 36.5108 -102.2944 339° North 390 449 36,400 -683 Descending Albuquerque Center
Sun 05:42:48 PM 36.6056 -102.3386 339° North 370 426 36,000 -194 Descending Albuquerque Center
Sun 05:43:50 PM 36.6994 -102.3836 339° North 362 417 36,000  Level Albuquerque Center
Sun 05:44:51 PM 36.8125 -102.4375 339° North 363 418 36,000  Level Albuquerque Center
Sun 05:45:53 PM 36.9028 -102.4808 339° North 367 422 36,000  Level Albuquerque Center
Sun 05:46:55 PM 37.0103 -102.5317 339° North 368 423 36,000  Level Albuquerque Center
Sun 05:47:56 PM 37.1008 -102.5781 338° Northwest 369 425 36,000  Level Albuquerque Center
Sun 05:48:58 PM 37.1919 -102.6222 339° North 367 422 36,000  Level Albuquerque Center
Sun 05:49:59 PM 37.3014 -102.6733 340° North 372 428 36,000  Level Albuquerque Center
Sun 05:51:01 PM 37.3950 -102.7189 339° North 375 432 36,000  Level Albuquerque Center
Sun 05:51:19 PM 37.4256 -102.7336 339° North 376 433 36,000  Level Denver Center
Sun 05:52:21 PM 37.5342 -102.7836 340° North 374 430 36,000  Level Denver Center
Sun 05:53:23 PM 37.6306 -102.8139 346° North 373 429 36,000  Level Denver Center
Sun 05:54:25 PM 37.7422 -102.8483 346° North 371 427 36,000  Level Denver Center
Sun 05:55:26 PM 37.8394 -102.8800 346° North 374 430 36,000 -49 Level Denver Center
Sun 05:56:28 PM 37.9194 -102.9056 346° North 374 430 35,900 -726 Descending Denver Center
Sun 05:57:30 PM 38.0478 -102.9456 346° North 362 417 34,500 -919 Descending Denver Center
Sun 05:58:32 PM 38.1389 -102.9744 346° North 356 410 34,000 -244 Descending Denver Center
Sun 05:59:33 PM 38.2508 -103.0106 346° North 370 426 34,000  Level Denver Center
Sun 06:00:35 PM 38.3425 -103.0706 333° Northwest 395 455 34,000  Level Denver Center
Sun 06:01:37 PM 38.4236 -103.1611 319° Northwest 404 465 34,000  Level Denver Center
Sun 06:02:39 PM 38.5206 -103.2706 319° Northwest 415 478 34,000  Level Denver Center
Sun 06:03:41 PM 38.6125 -103.3739 319° Northwest 413 475 34,000 -341 Level Denver Center
Sun 06:04:42 PM 38.6964 -103.4706 318° Northwest 421 484 33,300 -2,000 Descending Denver Center
Sun 06:05:44 PM 38.7947 -103.5836 318° Northwest 426 490 29,900 -3,048 Descending Denver Center
Sun 06:06:46 PM 38.8781 -103.6781 319° Northwest 420 483 27,000 -2,806 Descending Denver Center
Sun 06:07:48 PM 38.9606 -103.7736 318° Northwest 418 481 24,100 -3,000 Descending Denver Center
Sun 06:08:50 PM 39.0553 -103.8847 318° Northwest 414 476 20,800 -3,024 Descending Denver Center
Sun 06:09:51 PM 39.1358 -103.9769 318° Northwest 410 472 17,900 -1,854 Descending Denver Center
Sun 06:10:53 PM 39.2194 -104.0761 317° Northwest 384 442 17,000 -435 Descending Denver Center
Sun 06:11:55 PM 39.2675 -104.1628 306° West 308 354 17,000 -629 Level Denver Center
Sun 06:12:57 PM 39.2944 -104.2756 287° West 306 352 15,700 -1,452 Descending Denver Center
Sun 06:13:59 PM 39.3178 -104.3797 286° West 303 349 14,000 -927 Descending Denver Center
Sun 06:15:00 PM 39.3378 -104.4689 286° West 265 305 13,800 -732 Descending Denver Center
Sun 06:16:02 PM 39.3578 -104.5556 287° West 238 274 12,500 -1,161 Descending Denver Center
Sun 06:17:04 PM 39.3856 -104.6328 295° West 248 285 11,400 -1,016 Descending Denver Center
Sun 06:18:06 PM 39.4514 -104.6642 340° North 250 288 10,400 -677 Descending Denver Center
Sun 06:19:08 PM 39.5264 -104.6642 360° North 252 290 10,000 -195 Descending Denver Center
Sun 06:20:09 PM 39.5825 -104.6631 North 207 238 10,000 -439 Level Denver Center
Sun 06:21:11 PM 39.6431 -104.6633 360° North 203 234 9,100 -871 Descending Denver Center
Sun 06:22:13 PM 39.6936 -104.6625 North 186 214 8,200 -871 Descending Denver Center

Login

Don't have an account? Register now (free) for customized features, flight alerts, and more!